Miniplon — FIDV — position and weather

sailwx.info

Track history (hours):
 
Tides and Currents Weather Stations Pressure Air Temp Water Temp Dewpoint Dewpoint Depression Visibility Wind Speed Wind Dir Waves Ship Positions

Miniplon

Last reported at 2015-Jul-03 16:33 UTC. Time now 2015-Jul-06 05:00 UTC.
Position N 46°29' W 001°48'.

Length 22 m.

Type: SAR. MMSI: 228024600.

Date/timePositionNaut miles runAvg speedWind from/ knotsBaromVisibWave heightAir tempDewpointWater temp
2015-Jul-03 16:33N 46°29' W 001°48'1110.5
2015-Jul-03 15:33N 46°35' W 002°01'16 1.6
2015-Jul-03 05:23N 46°44' W 002°21'0 0.0
2015-Jul-03 04:23N 46°44' W 002°21'0 0.0
2015-Jul-03 02:26N 46°44' W 002°21'0 0.0
2015-Jul-02 21:08N 46°44' W 002°21'0 0.0
2015-Jul-02 00:19N 46°44' W 002°21'0 0.0
2015-Jul-01 04:32N 46°44' W 002°21'8 7.8
2015-Jul-01 03:31N 46°40' W 002°11'9 9.0
2015-Jul-01 02:32N 46°34' W 002°01'  
2015-Jun-24 16:29N 46°30' W 001°47'0 0.0
2015-Jun-24 15:32N 46°30' W 001°47'0 0.0
2015-Jun-24 14:32N 46°30' W 001°47'0 0.0
2015-Jun-24 13:32N 46°30' W 001°47'0 0.0
2015-Jun-24 12:32N 46°30' W 001°47'0 0.0
2015-Jun-24 11:32N 46°30' W 001°47'0 0.0
2015-Jun-24 10:32N 46°30' W 001°47'0 0.0
2015-Jun-24 09:32N 46°30' W 001°47'0 0.0
2015-Jun-24 08:32N 46°30' W 001°47'0 0.0
2015-Jun-24 07:32N 46°30' W 001°47'5 5.4
2015-Jun-24 06:33N 46°26' W 001°42'1 0.7
2015-Jun-24 05:33N 46°25' W 001°42'0 0.0
2015-Jun-24 04:33N 46°25' W 001°42'  
Track history (hours):
 
Tides and Currents Weather Stations Pressure Air Temp Water Temp Dewpoint Dewpoint Depression Visibility Wind Speed Wind Dir Waves Ship Positions

Miniplon

Last reported at 2015-Jul-03 16:33 UTC. Time now 2015-Jul-06 05:00 UTC.
Position N 46°29' W 001°48'.

Length 22 m.

Type: SAR. MMSI: 228024600.

Date/timePositionNaut miles runAvg speedWind from/ knotsBaromVisibWave heightAir tempDewpointWater temp
2015-Jul-03 16:33N 46°29' W 001°48'1110.5
2015-Jul-03 15:33N 46°35' W 002°01'16 1.6
2015-Jul-03 05:23N 46°44' W 002°21'0 0.0
2015-Jul-03 04:23N 46°44' W 002°21'0 0.0
2015-Jul-03 02:26N 46°44' W 002°21'0 0.0
2015-Jul-02 21:08N 46°44' W 002°21'0 0.0
2015-Jul-02 00:19N 46°44' W 002°21'0 0.0
2015-Jul-01 04:32N 46°44' W 002°21'8 7.8
2015-Jul-01 03:31N 46°40' W 002°11'9 9.0
2015-Jul-01 02:32N 46°34' W 002°01'  
2015-Jun-24 16:29N 46°30' W 001°47'0 0.0
2015-Jun-24 15:32N 46°30' W 001°47'0 0.0
2015-Jun-24 14:32N 46°30' W 001°47'0 0.0
2015-Jun-24 13:32N 46°30' W 001°47'0 0.0
2015-Jun-24 12:32N 46°30' W 001°47'0 0.0
2015-Jun-24 11:32N 46°30' W 001°47'0 0.0
2015-Jun-24 10:32N 46°30' W 001°47'0 0.0
2015-Jun-24 09:32N 46°30' W 001°47'0 0.0
2015-Jun-24 08:32N 46°30' W 001°47'0 0.0
2015-Jun-24 07:32N 46°30' W 001°47'5 5.4
2015-Jun-24 06:33N 46°26' W 001°42'1 0.7
2015-Jun-24 05:33N 46°25' W 001°42'0 0.0
2015-Jun-24 04:33N 46°25' W 001°42'  

Dump ship's entire track history